createdAt,value
2022-12-01T00:01:23.024Z,93.50
2022-12-01T00:03:50.348Z,93.50
2022-12-01T00:06:20.582Z,93.40
2022-12-01T00:09:09.297Z,93.50
2022-12-01T00:11:38.112Z,93.40
2022-12-01T00:14:05.878Z,93.40
2022-12-01T00:16:33.647Z,93.40
2022-12-01T00:19:01.040Z,93.40
2022-12-01T00:21:28.512Z,93.40
2022-12-01T00:23:57.742Z,93.40
2022-12-01T00:26:27.006Z,93.50
2022-12-01T00:28:56.537Z,93.40
2022-12-01T00:31:24.307Z,93.40
2022-12-01T00:33:51.718Z,93.40
2022-12-01T00:36:18.888Z,93.40
2022-12-01T00:38:46.249Z,93.40
2022-12-01T00:41:13.430Z,93.40
2022-12-01T00:43:41.484Z,93.70
2022-12-01T00:46:09.041Z,93.40
2022-12-01T00:48:36.262Z,93.40
2022-12-01T00:51:03.711Z,93.40
2022-12-01T00:53:31.175Z,93.40
2022-12-01T00:55:58.281Z,93.40
2022-12-01T00:58:25.658Z,93.40
2022-12-01T01:01:00.986Z,93.40
2022-12-01T01:03:29.747Z,93.40
2022-12-01T01:05:56.865Z,93.40
2022-12-01T01:08:24.151Z,93.40
2022-12-01T01:10:51.307Z,93.40
2022-12-01T01:13:18.474Z,93.40
2022-12-01T01:15:45.671Z,93.40
2022-12-01T01:18:12.960Z,93.30
2022-12-01T01:20:40.130Z,93.40
2022-12-01T01:23:07.254Z,93.30
2022-12-01T01:25:34.427Z,93.40
2022-12-01T01:28:01.561Z,93.30
2022-12-01T01:30:28.789Z,93.30
2022-12-01T01:32:55.972Z,93.40
2022-12-01T01:35:23.209Z,93.30
2022-12-01T01:37:51.048Z,93.30
2022-12-01T01:40:18.702Z,93.30
2022-12-01T01:42:45.959Z,93.30
2022-12-01T01:45:22.400Z,93.30
2022-12-01T01:47:52.109Z,93.30
2022-12-01T01:50:22.717Z,93.30
2022-12-01T01:52:56.473Z,93.30
2022-12-01T01:55:23.742Z,93.30
2022-12-01T01:57:51.194Z,93.30
2022-12-01T02:00:20.781Z,93.30
2022-12-01T02:02:50.128Z,93.30
2022-12-01T02:05:24.916Z,93.30
2022-12-01T02:07:55.366Z,93.30
2022-12-01T02:10:31.815Z,93.30
2022-12-01T02:13:10.616Z,93.30
2022-12-01T02:15:37.773Z,93.30
2022-12-01T02:18:14.025Z,93.30
2022-12-01T02:20:59.923Z,93.30
2022-12-01T02:23:51.572Z,93.30
2022-12-01T02:26:49.606Z,93.30
2022-12-01T02:30:03.504Z,93.30
2022-12-01T02:32:39.420Z,93.30
2022-12-01T02:35:27.519Z,93.30
2022-12-01T02:38:28.620Z,93.30
2022-12-01T02:41:00.558Z,93.30
2022-12-01T02:43:49.714Z,93.30
2022-12-01T02:46:28.097Z,93.30
2022-12-01T02:48:59.746Z,93.30
2022-12-01T02:51:32.507Z,93.20
2022-12-01T02:54:02.372Z,93.30
2022-12-01T02:56:29.732Z,93.30
2022-12-01T02:58:57.059Z,93.30
2022-12-01T03:01:59.254Z,93.30
2022-12-01T03:04:42.555Z,93.30
2022-12-01T03:07:33.389Z,93.20
2022-12-01T03:10:12.539Z,93.20
2022-12-01T03:12:51.901Z,93.20
2022-12-01T03:15:25.397Z,93.30
2022-12-01T03:17:58.317Z,93.20
2022-12-01T03:20:35.202Z,93.20
2022-12-01T03:23:12.944Z,93.20
2022-12-01T03:25:43.497Z,93.20
2022-12-01T03:28:22.927Z,93.20
2022-12-01T03:30:54.777Z,93.20
2022-12-01T03:33:29.475Z,93.30
2022-12-01T03:36:03.359Z,93.30
2022-12-01T03:38:32.077Z,93.30
2022-12-01T03:41:04.341Z,93.30
2022-12-01T03:43:35.108Z,93.30
2022-12-01T03:46:23.728Z,93.30
2022-12-01T03:48:53.039Z,93.30
2022-12-01T03:51:28.041Z,93.30
2022-12-01T03:54:32.555Z,93.30
2022-12-01T03:57:05.648Z,93.30
2022-12-01T03:59:35.986Z,93.30
2022-12-01T04:02:03.346Z,93.30
2022-12-01T04:04:30.656Z,93.30
2022-12-01T04:06:57.803Z,93.30
2022-12-01T04:09:25.033Z,93.30
2022-12-01T04:12:10.472Z,93.30
2022-12-01T04:14:37.559Z,93.30
2022-12-01T04:17:04.675Z,93.30
2022-12-01T04:19:32.181Z,93.30
2022-12-01T04:21:59.320Z,93.30
2022-12-01T04:24:26.465Z,93.30
2022-12-01T04:26:53.579Z,93.30
2022-12-01T04:29:20.813Z,93.30
2022-12-01T04:31:48.107Z,93.30
2022-12-01T04:34:15.265Z,93.30
2022-12-01T04:36:42.428Z,93.30
2022-12-01T04:39:09.521Z,93.30
2022-12-01T04:41:36.672Z,93.20
2022-12-01T04:44:03.805Z,93.20
2022-12-01T04:46:31.206Z,93.20
2022-12-01T04:48:58.465Z,93.20
2022-12-01T04:51:25.536Z,93.30
2022-12-01T04:53:52.686Z,93.20
2022-12-01T04:56:19.926Z,93.20
2022-12-01T04:58:47.202Z,93.20
2022-12-01T05:01:16.759Z,93.20
2022-12-01T05:03:46.839Z,93.20
2022-12-01T05:06:16.699Z,93.20
2022-12-01T05:08:43.900Z,93.20
2022-12-01T05:11:12.410Z,93.20
2022-12-01T05:13:41.734Z,93.20
2022-12-01T05:16:12.153Z,93.20
2022-12-01T05:18:39.711Z,93.20
2022-12-01T05:21:09.426Z,93.20
2022-12-01T05:23:37.960Z,93.20
2022-12-01T05:26:07.397Z,93.20
2022-12-01T05:28:34.815Z,93.20
2022-12-01T05:31:02.456Z,93.20
2022-12-01T05:33:29.807Z,93.20
2022-12-01T05:35:57.218Z,93.20
2022-12-01T05:38:24.345Z,93.20
2022-12-01T05:40:53.713Z,93.20
2022-12-01T05:43:28.253Z,93.20
2022-12-01T05:45:56.693Z,93.20
2022-12-01T05:48:23.928Z,93.20
2022-12-01T05:50:51.076Z,93.20
2022-12-01T05:53:19.357Z,93.20
2022-12-01T05:55:46.657Z,93.20
2022-12-01T05:58:13.733Z,93.20
2022-12-01T06:00:45.621Z,93.20
2022-12-01T06:03:14.174Z,93.20
2022-12-01T06:05:41.354Z,93.20
2022-12-01T06:08:08.532Z,93.20
2022-12-01T06:10:35.699Z,93.10
2022-12-01T06:13:02.793Z,93.20
2022-12-01T06:15:29.905Z,93.20
2022-12-01T06:17:59.849Z,93.20
2022-12-01T06:20:27.364Z,93.20
2022-12-01T06:22:54.547Z,93.20
2022-12-01T06:25:21.671Z,93.20
2022-12-01T06:27:49.652Z,93.20
2022-12-01T06:30:16.926Z,93.20
2022-12-01T06:32:44.045Z,93.20
2022-12-01T06:35:11.178Z,93.20
2022-12-01T06:37:38.240Z,93.20
2022-12-01T06:40:05.989Z,93.20
2022-12-01T06:42:33.140Z,93.20
2022-12-01T06:45:00.460Z,93.20
2022-12-01T06:47:27.757Z,93.20
2022-12-01T06:49:54.835Z,93.20
2022-12-01T06:52:21.919Z,93.20
2022-12-01T06:54:49.166Z,93.20
2022-12-01T06:57:16.695Z,93.20
2022-12-01T06:59:44.144Z,93.20
2022-12-01T07:02:11.988Z,93.20
2022-12-01T07:04:39.293Z,93.20
2022-12-01T07:07:06.683Z,93.20
2022-12-01T07:09:34.309Z,93.20
2022-12-01T07:12:01.690Z,93.20
2022-12-01T07:14:29.015Z,93.20
2022-12-01T07:16:56.269Z,93.20
2022-12-01T07:19:23.545Z,93.20
2022-12-01T07:21:50.654Z,93.20
2022-12-01T07:24:17.791Z,93.20
2022-12-01T07:26:45.606Z,93.20
2022-12-01T07:29:12.830Z,93.20
2022-12-01T07:31:40.352Z,93.20
2022-12-01T07:34:07.549Z,93.20
2022-12-01T07:36:34.687Z,93.20
2022-12-01T07:39:07.741Z,93.20
2022-12-01T07:41:36.028Z,93.20
2022-12-01T07:44:03.714Z,93.20
2022-12-01T07:46:30.992Z,93.20
2022-12-01T07:48:59.499Z,93.20
2022-12-01T07:51:27.339Z,93.20
2022-12-01T07:53:55.313Z,93.20
2022-12-01T07:56:23.805Z,93.20
2022-12-01T07:58:51.478Z,93.20
2022-12-01T08:01:24.895Z,93.20
2022-12-01T08:03:54.094Z,93.20
2022-12-01T08:06:21.997Z,93.30
2022-12-01T08:08:49.869Z,93.30
2022-12-01T08:11:22.275Z,93.40
2022-12-01T08:13:50.329Z,93.30
2022-12-01T08:16:21.171Z,93.30
2022-12-01T08:18:48.989Z,93.30
2022-12-01T08:21:18.969Z,93.40
2022-12-01T08:23:46.721Z,93.30
2022-12-01T08:26:16.411Z,93.30
2022-12-01T08:28:44.567Z,93.30
2022-12-01T08:31:15.148Z,93.30
2022-12-01T08:33:42.364Z,93.30
2022-12-01T08:36:09.536Z,93.30
2022-12-01T08:38:36.723Z,93.30
2022-12-01T08:41:06.973Z,93.30
2022-12-01T08:43:56.424Z,93.40
2022-12-01T08:46:22.034Z,93.30
2022-12-01T08:48:49.238Z,93.40
2022-12-01T08:51:19.062Z,93.30
2022-12-01T08:53:49.042Z,93.40
2022-12-01T08:56:16.141Z,93.40
2022-12-01T08:58:43.412Z,93.30
2022-12-01T09:01:13.089Z,93.30
2022-12-01T09:03:41.232Z,93.40
2022-12-01T09:06:11.226Z,93.40
2022-12-01T09:08:38.636Z,93.30
2022-12-01T09:11:11.530Z,93.40
2022-12-01T09:13:39.832Z,93.40
2022-12-01T09:16:15.333Z,93.40
2022-12-01T09:18:43.802Z,93.40
2022-12-01T09:21:15.406Z,93.40
2022-12-01T09:23:42.873Z,93.40
2022-12-01T09:26:13.552Z,93.40
2022-12-01T09:28:41.227Z,93.40
2022-12-01T09:31:12.019Z,93.40
2022-12-01T09:33:40.073Z,93.40
2022-12-01T09:36:10.736Z,93.40
2022-12-01T09:38:39.499Z,93.50
2022-12-01T09:41:15.352Z,93.40
2022-12-01T09:43:52.803Z,93.40
2022-12-01T09:46:26.209Z,93.50
2022-12-01T09:48:57.379Z,93.50
2022-12-01T09:51:27.974Z,93.50
2022-12-01T09:53:57.626Z,93.50
2022-12-01T09:56:32.225Z,93.40
2022-12-01T09:59:02.423Z,93.40
2022-12-01T10:01:38.417Z,93.50
2022-12-01T10:04:23.487Z,93.50
2022-12-01T10:06:59.398Z,93.50
2022-12-01T10:10:04.260Z,93.40
2022-12-01T10:12:34.245Z,93.40
2022-12-01T10:15:13.217Z,93.50
2022-12-01T10:17:52.616Z,93.50
2022-12-01T10:20:34.328Z,93.50
2022-12-01T10:23:19.193Z,93.40
2022-12-01T10:26:14.655Z,93.50
2022-12-01T10:29:00.761Z,93.50
2022-12-01T10:31:59.041Z,93.50
2022-12-01T10:34:38.892Z,93.50
2022-12-01T10:37:06.719Z,93.50
2022-12-01T10:39:49.129Z,93.50
2022-12-01T10:42:37.536Z,93.50
2022-12-01T10:45:08.372Z,93.50
2022-12-01T10:47:35.440Z,93.50
2022-12-01T10:50:07.353Z,93.50
2022-12-01T10:52:39.029Z,93.50
2022-12-01T10:55:46.363Z,93.50
2022-12-01T10:58:16.948Z,93.50
2022-12-01T11:01:01.866Z,93.50
2022-12-01T11:03:34.968Z,93.50
2022-12-01T11:06:07.906Z,93.60
2022-12-01T11:08:46.853Z,93.50
2022-12-01T11:11:31.236Z,93.50
2022-12-01T11:14:02.423Z,93.50
2022-12-01T11:16:54.170Z,93.50
2022-12-01T11:19:26.862Z,93.60
2022-12-01T11:22:00.301Z,93.50
2022-12-01T11:24:29.290Z,93.50
2022-12-01T11:26:58.810Z,93.50
2022-12-01T11:29:29.480Z,93.50
2022-12-01T11:31:57.973Z,93.50
2022-12-01T11:34:34.489Z,93.50
2022-12-01T11:37:06.629Z,93.50
2022-12-01T11:39:40.797Z,93.50
2022-12-01T11:42:18.413Z,93.50
2022-12-01T11:45:10.736Z,93.50
2022-12-01T11:47:59.519Z,93.50
2022-12-01T11:50:29.501Z,93.50
2022-12-01T11:52:56.851Z,93.50
2022-12-01T11:55:26.850Z,93.50
2022-12-01T11:57:57.682Z,93.60
2022-12-01T12:00:28.101Z,93.50
2022-12-01T12:03:41.227Z,93.50
2022-12-01T12:06:38.988Z,93.60
2022-12-01T12:09:44.949Z,93.50
2022-12-01T12:12:15.112Z,93.50
2022-12-01T12:15:13.826Z,93.50
2022-12-01T12:18:02.450Z,93.50
2022-12-01T12:20:48.333Z,93.50
2022-12-01T12:23:24.788Z,93.50
2022-12-01T12:26:29.220Z,93.50
2022-12-01T12:29:22.204Z,93.50
2022-12-01T12:32:18.400Z,93.50
2022-12-01T12:35:07.800Z,93.50
2022-12-01T12:37:53.762Z,93.50
2022-12-01T12:40:38.225Z,93.60
2022-12-01T12:43:22.472Z,93.50
2022-12-01T12:46:27.060Z,93.50
2022-12-01T12:49:25.513Z,93.50
2022-12-01T12:52:08.076Z,93.50
2022-12-01T12:55:00.479Z,93.60
2022-12-01T12:58:07.928Z,93.60
2022-12-01T13:00:44.182Z,93.60
2022-12-01T13:03:17.896Z,93.60
2022-12-01T13:05:49.462Z,93.50
2022-12-01T13:08:24.315Z,93.50
2022-12-01T13:11:00.812Z,93.60
2022-12-01T13:13:46.379Z,93.60
2022-12-01T13:16:22.723Z,93.50
2022-12-01T13:19:05.056Z,93.50
2022-12-01T13:21:43.215Z,93.60
2022-12-01T13:24:17.304Z,93.60
2022-12-01T13:26:51.247Z,93.60
2022-12-01T13:29:21.871Z,93.50
2022-12-01T13:31:51.713Z,93.50
2022-12-01T13:34:27.015Z,93.50
2022-12-01T13:36:55.669Z,93.50
2022-12-01T13:39:28.893Z,93.60
2022-12-01T13:42:00.377Z,93.50
2022-12-01T13:44:53.920Z,93.50
2022-12-01T13:47:21.315Z,93.50
2022-12-01T13:49:52.133Z,93.50
2022-12-01T13:52:22.467Z,93.50
2022-12-01T13:55:07.573Z,93.50
2022-12-01T13:57:44.943Z,93.50
2022-12-01T14:00:32.931Z,93.50
2022-12-01T14:03:15.411Z,93.50
2022-12-01T14:05:42.494Z,93.50
2022-12-01T14:08:25.318Z,93.50
2022-12-01T14:11:21.340Z,93.50
2022-12-01T14:14:00.556Z,93.50
2022-12-01T14:16:48.098Z,93.50
2022-12-01T14:19:44.559Z,93.50
2022-12-01T14:22:44.356Z,93.50
2022-12-01T14:25:20.491Z,93.50
2022-12-01T14:27:51.512Z,93.50
2022-12-01T14:30:40.348Z,93.50
2022-12-01T14:33:47.851Z,93.50
2022-12-01T14:36:23.920Z,93.50
2022-12-01T14:39:16.188Z,93.50
2022-12-01T14:41:56.449Z,93.50
2022-12-01T14:44:33.971Z,93.50
2022-12-01T14:47:08.612Z,93.50
2022-12-01T14:49:55.310Z,93.40
2022-12-01T14:52:28.379Z,93.50
2022-12-01T14:54:58.991Z,93.50
2022-12-01T14:57:41.156Z,93.50
2022-12-01T15:00:13.501Z,93.50
2022-12-01T15:03:13.740Z,93.50
2022-12-01T15:05:43.540Z,93.50
2022-12-01T15:08:58.239Z,93.40
2022-12-01T15:11:23.264Z,93.40
2022-12-01T15:13:59.553Z,93.50
2022-12-01T15:16:30.649Z,93.70
2022-12-01T15:18:58.143Z,93.40
2022-12-01T15:21:32.700Z,93.40
2022-12-01T15:24:26.728Z,93.40
2022-12-01T15:27:02.173Z,93.40
2022-12-01T15:29:45.680Z,93.40
2022-12-01T15:32:16.934Z,93.40
2022-12-01T15:34:47.185Z,93.40
2022-12-01T15:37:17.574Z,93.40
2022-12-01T15:40:47.726Z,93.40
2022-12-01T15:43:23.368Z,93.40
2022-12-01T15:46:02.096Z,93.40
2022-12-01T15:48:35.278Z,93.40
2022-12-01T15:51:05.740Z,93.40
2022-12-01T15:53:35.729Z,93.40
2022-12-01T15:56:06.778Z,93.40
2022-12-01T15:58:41.393Z,93.40
2022-12-01T16:01:32.303Z,93.30
2022-12-01T16:04:06.354Z,93.30
2022-12-01T16:06:36.507Z,93.30
2022-12-01T16:09:06.850Z,93.30
2022-12-01T16:11:34.127Z,93.30
2022-12-01T16:14:02.677Z,93.30
2022-12-01T16:16:46.400Z,93.30
2022-12-01T16:19:16.331Z,93.30
2022-12-01T16:22:02.092Z,93.30
2022-12-01T16:24:36.899Z,93.30
2022-12-01T16:27:16.736Z,93.30
2022-12-01T16:29:57.238Z,93.30
2022-12-01T16:32:36.062Z,93.30
2022-12-01T16:35:04.433Z,93.30
2022-12-01T16:37:31.886Z,93.30
2022-12-01T16:39:59.074Z,93.30
2022-12-01T16:42:27.366Z,93.30
2022-12-01T16:44:54.567Z,93.30
2022-12-01T16:47:24.525Z,93.30
2022-12-01T16:49:52.592Z,93.30
2022-12-01T16:52:43.692Z,93.30
2022-12-01T16:55:19.157Z,93.30
2022-12-01T16:57:46.315Z,93.30
2022-12-01T17:00:14.289Z,93.30
2022-12-01T17:02:41.564Z,93.30
2022-12-01T17:05:11.360Z,93.30
2022-12-01T17:07:38.865Z,93.30
2022-12-01T17:10:06.743Z,93.30
2022-12-01T17:12:33.887Z,93.30
2022-12-01T17:15:01.203Z,93.30
2022-12-01T17:17:31.096Z,93.30
2022-12-01T17:19:58.301Z,93.30
2022-12-01T17:22:25.529Z,93.30
2022-12-01T17:24:54.827Z,93.30
2022-12-01T17:27:27.783Z,93.30
2022-12-01T17:29:55.958Z,93.30
2022-12-01T17:32:23.121Z,93.30
2022-12-01T17:34:50.450Z,93.20
2022-12-01T17:37:21.074Z,93.30
2022-12-01T17:39:49.691Z,93.20
2022-12-01T17:42:17.259Z,93.30
2022-12-01T17:44:44.397Z,93.30
2022-12-01T17:47:12.120Z,93.30
2022-12-01T17:49:39.263Z,93.20
2022-12-01T17:52:08.354Z,93.30
2022-12-01T17:54:35.534Z,93.30
2022-12-01T17:57:02.686Z,93.20
2022-12-01T17:59:29.744Z,93.20
2022-12-01T18:01:56.966Z,93.30
2022-12-01T18:04:24.151Z,93.20
2022-12-01T18:06:54.214Z,93.20
2022-12-01T18:09:22.129Z,93.20
2022-12-01T18:11:49.988Z,93.20
2022-12-01T18:14:20.257Z,93.20
2022-12-01T18:16:47.398Z,93.20
2022-12-01T18:19:14.632Z,93.30
2022-12-01T18:21:42.379Z,93.20
2022-12-01T18:24:10.459Z,93.20
2022-12-01T18:26:40.041Z,93.30
2022-12-01T18:29:12.746Z,93.20
2022-12-01T18:31:41.024Z,93.20
2022-12-01T18:34:10.086Z,93.30
2022-12-01T18:36:39.835Z,93.30
2022-12-01T18:39:09.188Z,93.30
2022-12-01T18:41:36.979Z,93.30
2022-12-01T18:44:04.769Z,93.30
2022-12-01T18:46:32.648Z,93.40
2022-12-01T18:49:03.174Z,93.80
2022-12-01T18:51:32.454Z,94.30
2022-12-01T18:54:01.519Z,94.50
2022-12-01T18:56:29.661Z,94.20
2022-12-01T18:58:58.506Z,94.20
2022-12-01T19:01:32.329Z,94.20
2022-12-01T19:04:01.225Z,94.30
2022-12-01T19:06:29.602Z,94.20
2022-12-01T19:09:00.145Z,94.20
2022-12-01T19:11:27.754Z,94.20
2022-12-01T19:13:56.530Z,94.20
2022-12-01T19:16:24.016Z,94.20
2022-12-01T19:18:51.335Z,94.20
2022-12-01T19:21:20.020Z,94.20
2022-12-01T19:23:48.336Z,94.20
2022-12-01T19:26:18.016Z,94.20
2022-12-01T19:28:45.877Z,94.20
2022-12-01T19:31:15.480Z,94.10
2022-12-01T19:33:42.980Z,94.20
2022-12-01T19:36:13.302Z,94.20
2022-12-01T19:38:40.841Z,94.20
2022-12-01T19:41:09.386Z,94.20
2022-12-01T19:43:37.592Z,94.20
2022-12-01T19:46:10.171Z,94.20
2022-12-01T19:48:41.150Z,94.20
2022-12-01T19:51:22.042Z,94.20
2022-12-01T19:53:50.556Z,94.20
2022-12-01T19:56:17.858Z,94.20
2022-12-01T19:58:45.118Z,94.20
2022-12-01T20:01:15.300Z,94.10
2022-12-01T20:03:45.692Z,94.10
2022-12-01T20:06:18.811Z,94.20
2022-12-01T20:08:46.337Z,94.20
2022-12-01T20:11:14.582Z,94.10
2022-12-01T20:13:43.920Z,94.10
2022-12-01T20:16:17.487Z,94.10
2022-12-01T20:18:45.362Z,94.10
2022-12-01T20:21:24.416Z,94.10
2022-12-01T20:23:57.781Z,94.10
2022-12-01T20:26:33.771Z,94.10
2022-12-01T20:29:04.764Z,94.00
2022-12-01T20:31:33.304Z,94.10
2022-12-01T20:34:03.965Z,94.10
2022-12-01T20:36:31.750Z,94.10
2022-12-01T20:38:58.956Z,94.10
2022-12-01T20:41:26.058Z,94.00
2022-12-01T20:43:53.253Z,94.10
2022-12-01T20:46:20.465Z,94.00
2022-12-01T20:48:47.669Z,94.10
2022-12-01T20:51:15.637Z,94.10
2022-12-01T20:53:59.639Z,94.00
2022-12-01T20:56:30.343Z,94.00
2022-12-01T20:58:58.418Z,94.00
2022-12-01T21:01:25.828Z,94.00
2022-12-01T21:03:53.611Z,94.00
2022-12-01T21:06:21.848Z,94.00
2022-12-01T21:08:50.290Z,94.00
2022-12-01T21:11:44.900Z,94.00
2022-12-01T21:14:17.833Z,94.00
2022-12-01T21:16:48.426Z,94.00
2022-12-01T21:19:24.541Z,94.00
2022-12-01T21:21:51.731Z,93.90
2022-12-01T21:24:22.269Z,93.90
2022-12-01T21:26:58.430Z,93.90
2022-12-01T21:29:28.552Z,94.00
2022-12-01T21:32:00.225Z,93.90
2022-12-01T21:34:29.063Z,93.90
2022-12-01T21:37:01.804Z,93.90
2022-12-01T21:39:30.530Z,93.80
2022-12-01T21:42:09.305Z,93.90
2022-12-01T21:44:37.589Z,93.80
2022-12-01T21:47:26.130Z,93.90
2022-12-01T21:49:56.240Z,93.90
2022-12-01T21:52:31.945Z,93.80
2022-12-01T21:55:09.133Z,93.80
2022-12-01T21:57:54.447Z,93.90
2022-12-01T22:00:26.883Z,93.90
2022-12-01T22:03:08.805Z,93.80
2022-12-01T22:05:41.709Z,93.80
2022-12-01T22:08:17.759Z,93.80
2022-12-01T22:11:12.957Z,93.80
2022-12-01T22:14:08.919Z,93.70
2022-12-01T22:16:40.592Z,93.80
2022-12-01T22:19:34.380Z,94.00
2022-12-01T22:22:14.396Z,93.70
2022-12-01T22:24:44.176Z,93.70
2022-12-01T22:27:31.906Z,93.70
2022-12-01T22:30:03.757Z,93.70
2022-12-01T22:32:53.278Z,93.70
2022-12-01T22:35:39.348Z,93.70
2022-12-01T22:38:06.418Z,93.60
2022-12-01T22:41:03.777Z,93.60
2022-12-01T22:43:38.709Z,93.60
2022-12-01T22:46:22.771Z,93.60
2022-12-01T22:49:03.257Z,93.60
2022-12-01T22:51:43.965Z,93.60
2022-12-01T22:54:22.531Z,93.60
2022-12-01T22:56:57.953Z,93.60
2022-12-01T22:59:34.123Z,93.60
2022-12-01T23:02:11.790Z,93.60
2022-12-01T23:04:42.451Z,93.60
2022-12-01T23:07:30.234Z,93.60
2022-12-01T23:10:17.368Z,93.60
2022-12-01T23:12:46.101Z,93.60
2022-12-01T23:15:25.779Z,93.60
2022-12-01T23:17:53.010Z,93.60
2022-12-01T23:20:28.918Z,93.60
2022-12-01T23:22:58.646Z,93.60
2022-12-01T23:25:27.566Z,93.60
2022-12-01T23:27:58.573Z,93.50
2022-12-01T23:30:26.288Z,93.60
2022-12-01T23:33:17.773Z,93.60
2022-12-01T23:35:57.607Z,93.50
2022-12-01T23:38:37.561Z,93.60
2022-12-01T23:41:16.747Z,93.60
2022-12-01T23:43:45.288Z,93.60
2022-12-01T23:46:24.422Z,93.60
2022-12-01T23:48:58.955Z,93.50
2022-12-01T23:51:37.049Z,93.60
2022-12-01T23:54:16.286Z,93.60
2022-12-01T23:56:47.400Z,93.60
2022-12-01T23:59:14.715Z,93.50
